Latest Weather Observations for Cape Sorell

IDT60801

Issued at 11:35 am EST Wednesday 3 September 2014 (issued every 30 minutes, with the page automatically refreshed every 10 minutes)

About weather observations | Map of weather stations | Latest weather observations for TAS | Other Formats
Station Details ID: 097000 Name: CAPE SORELL Lat: -42.20 Lon: 145.17 Height: 19.3 m
Data from the previous 72 hours. | See also: Recent months at Cape Sorell
Date/Time
EST
Temp
°C
App
Temp
°C
Dew
Point
Rel
Hum
%
Delta-T
°C
Wind Press
QNH
hPa
Press
MSL
hPa
Rain
since 9 am
mm
Dir
 
Spd
km/h
Gust
km/h
Spd
kts
Gust
kts
03/11:30am 10.7 7.5 6.8 77 1.8 N 13 17 7 9 1021.3 1021.3 0.0
03/11:00am 11.2 8.5 7.3 77 1.9 NNE 11 15 6 8 1021.5 1021.5 0.0
03/10:30am 10.4 7.4 7.5 82 1.4 N 13 17 7 9 1021.8 1021.8 0.0
03/10:00am 9.8 7.0 7.1 83 1.3 NNE 11 13 6 7 1022.1 1022.1 0.0
03/09:30am 9.5 6.6 6.6 82 1.4 N 11 15 6 8 1022.3 1022.3 0.0
03/09:00am 9.6 6.7 6.5 81 1.4 NE 11 13 6 7 1022.4 1022.4 1.6
03/08:30am 8.9 5.9 6.2 83 1.2 ENE 11 15 6 8 1022.2 1022.2 1.6
03/08:00am 8.4 5.7 5.5 82 1.3 NE 9 11 5 6 1022.2 1022.2 1.6
03/07:30am 7.7 4.3 5.7 87 0.9 NE 13 17 7 9 1022.1 1022.1 1.6
03/07:00am 6.9 3.7 4.9 87 0.9 ENE 11 13 6 7 1021.9 1021.9 1.6
03/06:30am 7.5 4.3 5.3 86 1.0 NE 11 13 6 7 1021.7 1021.7 1.6
03/06:00am 7.1 3.1 4.8 85 1.0 NE 15 19 8 10 1021.7 1021.7 1.6
03/05:30am 6.7 2.6 4.4 85 1.0 ENE 15 19 8 10 1021.8 1021.8 1.6
03/05:00am 6.6 2.5 4.4 86 0.9 ENE 15 17 8 9 1021.7 1021.7 1.6
03/04:30am 6.6 3.6 4.3 85 1.0 NE 9 13 5 7 1021.8 1021.8 1.6
03/04:00am 6.9 4.0 4.4 84 1.1 NE 9 13 5 7 1021.9 1021.9 1.6
03/03:30am 7.3 3.7 4.8 84 1.1 NE 13 15 7 8 1022.0 1022.0 1.6
03/03:00am 7.7 4.5 5.2 84 1.1 NE 11 15 6 8 1022.0 1022.0 1.6
03/02:30am 7.1 3.8 4.4 83 1.2 NE 11 15 6 8 1022.1 1022.1 1.6
03/02:00am 7.3 3.5 4.1 80 1.4 NE 13 15 7 8 1022.4 1022.4 1.6
03/01:30am 7.6 4.3 4.4 80 1.4 NE 11 15 6 8 1022.7 1022.7 1.6
03/01:00am 7.7 4.4 4.5 80 1.4 NE 11 11 6 6 1022.9 1022.9 1.6
03/12:30am 7.4 4.8 4.4 81 1.3 NE 7 7 4 4 1022.8 1022.8 1.6
03/12:00am 7.7 5.2 4.8 82 1.3 NE 7 9 4 5 1022.7 1022.7 1.6
 
Date/Time
EST
Temp
°C
App
Temp
°C
Dew
Point
Rel
Hum
%
Delta-T
°C
Wind Press
QNH
hPa
Press
MSL
hPa
Rain
since 9 am
mm
Dir
 
Spd
km/h
Gust
km/h
Spd
kts
Gust
kts
02/11:30pm 6.7 3.0 4.4 85 1.0 ENE 13 15 7 8 1022.6 1022.6 1.6
02/11:00pm 6.5 2.6 3.5 81 1.3 E 13 15 7 8 1022.6 1022.6 1.6
02/10:30pm 6.8 3.2 3.1 77 1.6 E 11 11 6 6 1022.6 1022.6 1.6
02/10:00pm 7.0 3.4 2.9 75 1.7 E 11 13 6 7 1022.5 1022.5 1.6
02/09:30pm 7.4 3.8 2.9 73 1.9 ESE 11 13 6 7 1022.5 1022.5 1.6
02/09:00pm 8.5 4.5 3.1 69 2.3 S 13 20 7 11 1022.5 1022.5 1.6
02/08:30pm 9.3 2.3 4.3 71 2.2 SSW 30 35 16 19 1022.4 1022.4 1.6
02/08:00pm 9.9 3.8 3.0 62 3.0 S 24 28 13 15 1022.2 1022.2 1.6
02/07:30pm 10.0 2.9 3.5 64 2.8 SSW 30 35 16 19 1021.9 1021.9 1.6
02/07:00pm 9.9 3.6 3.6 65 2.7 S 26 37 14 20 1021.6 1021.6 1.6
02/06:30pm 9.8 3.4 3.3 64 2.8 S 26 33 14 18 1021.5 1021.5 1.6
02/06:00pm 9.7 3.0 3.4 65 2.7 SSW 28 35 15 19 1021.1 1021.1 1.6
02/05:30pm 9.8 2.3 3.5 65 2.7 SSW 32 41 17 22 1020.7 1020.7 1.6
02/05:00pm 10.0 2.5 4.4 68 2.5 SSW 33 39 18 21 1020.3 1020.3 1.6
02/04:30pm 10.2 2.8 5.0 70 2.4 SSW 33 41 18 22 1020.0 1020.0 1.6
02/04:00pm 10.0 2.0 5.8 75 1.9 SSW 37 46 20 25 1019.7 1019.7 1.6
02/03:30pm 9.5 4.3 5.5 76 1.8 S 22 32 12 17 1019.9 1019.9 1.6
02/03:00pm 10.2 4.1 6.4 77 1.8 S 28 37 15 20 1019.8 1019.8 1.6
02/02:30pm 10.1 3.1 7.0 81 1.5 SSW 33 39 18 21 1019.4 1019.4 1.6
02/02:00pm 9.3 2.7 7.6 89 0.8 S 32 41 17 22 1019.3 1019.3 1.6
02/01:53pm 9.1 2.9 7.7 91 0.7 S 30 37 16 20 1019.2 1019.2 1.6
02/01:30pm 8.7 5.2 7.2 90 0.7 SW 15 19 8 10 1019.5 1019.5 1.4
02/01:00pm 9.8 2.3 6.5 80 1.5 SW 35 46 19 25 1019.2 1019.2 0.0
02/12:30pm 11.3 5.0 5.6 68 2.6 SSW 28 35 15 19 1019.3 1019.3 0.0
02/12:00pm 12.0 7.0 3.8 57 3.7 SW 19 22 10 12 1019.6 1019.6 0.0
02/11:30am 12.3 7.9 4.5 59 3.5 SW 17 20 9 11 1019.7 1019.7 0.0
02/11:00am 12.0 10.3 5.9 66 2.8 SW 4 7 2 4 1019.8 1019.8 0.0
02/10:30am 11.3 9.4 5.0 65 2.9 SE 4 7 2 4 1019.7 1019.7 0.0
02/10:00am 11.3 8.8 4.7 64 3.0 S 7 13 4 7 1019.5 1019.5 0.0
02/09:30am 11.2 8.3 4.7 64 2.9 ESE 9 13 5 7 1019.3 1019.3 0.0
02/09:00am 11.1 8.8 5.8 70 2.5 SE 7 13 4 7 1019.1 1019.1 2.2
02/08:30am 8.5 5.3 5.1 79 1.5 S 11 19 6 10 1018.8 1018.8 2.2
02/08:00am 9.0 6.2 6.8 86 1.0 E 11 15 6 8 1018.4 1018.4 2.2
02/07:30am 7.3 3.3 5.1 86 1.0 E 15 17 8 9 1017.9 1017.9 2.2
02/07:00am 6.1 1.4 3.3 82 1.2 E 17 19 9 10 1017.5 1017.5 2.2
02/06:30am 6.2 1.9 3.0 80 1.3 ESE 15 19 8 10 1017.2 1017.2 2.2
02/06:00am 6.5 2.6 3.3 80 1.3 ESE 13 17 7 9 1016.9 1016.9 2.2
02/05:30am 6.3 1.9 2.9 79 1.4 ESE 15 20 8 11 1016.3 1016.3 2.2
02/05:00am 6.6 2.2 2.7 76 1.6 ESE 15 20 8 11 1015.9 1015.9 2.2
02/04:30am 7.1 2.3 2.4 72 1.9 SE 17 24 9 13 1015.3 1015.4 2.2
02/04:00am 7.4 2.1 3.1 74 1.8 SSE 20 28 11 15 1014.9 1015.0 2.2
02/03:30am 8.0 2.4 3.7 74 1.8 SSE 22 30 12 16 1014.7 1014.8 2.2
02/03:00am 7.7 2.5 3.4 74 1.8 SSE 20 30 11 16 1014.3 1014.4 2.2
02/02:30am 7.8 2.2 3.5 74 1.8 SSE 22 28 12 15 1014.0 1014.1 2.2
02/02:00am 7.3 2.4 3.9 79 1.5 SE 19 26 10 14 1013.8 1013.9 2.2
02/01:30am 7.4 2.9 4.2 80 1.4 SE 17 24 9 13 1013.6 1013.7 2.2
02/01:00am 7.6 3.2 4.7 82 1.3 SSE 17 24 9 13 1013.3 1013.4 2.2
02/12:30am 7.8 3.0 4.4 79 1.5 SE 19 28 10 15 1013.0 1013.1 2.2
02/12:00am 8.1 2.3 4.5 78 1.6 SE 24 35 13 19 1012.7 1012.8 2.2
 
Date/Time
EST
Temp
°C
App
Temp
°C
Dew
Point
Rel
Hum
%
Delta-T
°C
Wind Press
QNH
hPa
Press
MSL
hPa
Rain
since 9 am
mm
Dir
 
Spd
km/h
Gust
km/h
Spd
kts
Gust
kts
01/11:30pm 8.2 3.0 5.3 82 1.3 SSE 22 35 12 19 1012.3 1012.4 2.2
01/11:00pm 8.7 3.2 6.0 83 1.2 S 24 33 13 18 1011.9 1012.0 2.2
01/10:30pm 9.2 5.3 7.2 87 0.9 S 17 22 9 12 1011.7 1011.8 2.2
01/10:00pm 9.7 4.2 7.6 87 1.0 SSW 26 32 14 17 1011.3 1011.4 2.2
01/09:30pm 9.7 5.3 7.3 85 1.1 SSW 20 26 11 14 1011.0 1011.1 2.2
01/09:00pm 9.1 4.2 7.1 87 0.9 S 22 28 12 15 1010.7 1010.8 2.2
01/08:30pm 8.8 4.3 7.1 89 0.8 S 20 30 11 16 1010.5 1010.6 2.2
01/08:00pm 9.0 6.3 7.3 89 0.8 SSE 11 15 6 8 1009.9 1010.0 2.0
01/07:30pm 9.4 5.6 7.5 88 0.9 S 17 22 9 12 1009.5 1009.6 2.0
01/07:00pm 9.5 1.8 7.3 86 1.0 S 37 48 20 26 1008.9 1009.0 1.6
01/06:51pm 10.1 2.1 7.3 83 1.3 S 39 44 21 24 1008.7 1008.8 1.4
01/06:30pm 10.2 7.2 7.6 84 1.2 S 13 17 7 9 1008.4 1008.5 1.4
01/06:00pm 10.0 7.3 7.4 84 1.2 S 11 17 6 9 1007.9 1008.0 1.4
01/05:30pm 9.9 6.4 7.0 82 1.4 SSE 15 20 8 11 1007.5 1007.6 1.4
01/05:00pm 10.7 6.3 7.4 80 1.6 S 20 26 11 14 1007.0 1007.1 1.4
01/04:30pm 10.6 5.0 7.3 80 1.6 S 26 35 14 19 1006.5 1006.5 1.4
01/04:00pm 10.3 3.6 7.5 83 1.3 S 32 46 17 25 1006.0 1006.0 1.4
01/03:52pm 10.7 4.9 8.1 84 1.3 S 28 46 15 25 1005.9 1005.9 1.4
01/03:30pm 10.5 4.8 8.4 87 1.0 S 28 35 15 19 1005.7 1005.7 1.4
01/03:00pm 10.2 4.5 8.5 89 0.8 S 28 35 15 19 1005.2 1005.2 1.4
01/02:30pm 9.9 0.7 8.2 89 0.8 S 46 54 25 29 1004.8 1004.8 1.4
01/02:00pm 10.9 4.3 8.5 85 1.2 S 33 43 18 23 1004.5 1004.5 1.0
01/01:30pm 11.1 4.6 8.8 86 1.1 S 33 39 18 21 1004.5 1004.5 1.0
01/01:00pm 10.8 5.4 9.4 91 0.7 S 28 37 15 20 1004.4 1004.4 1.0
01/12:30pm 10.9 4.1 9.3 90 0.8 S 35 44 19 24 1004.3 1004.3 1.0
01/12:00pm 10.9 4.3 10.0 94 0.5 SSW 35 43 19 23 1004.0 1004.0 1.0
01/11:30am 10.7 3.7 10.1 96 0.3 SSW 37 43 20 23 1003.7 1003.7 1.0
01/11:00am 11.1 5.0 10.6 97 0.3 SSW 33 39 18 21 1003.8 1003.8 0.8
01/10:30am 11.2 5.2 10.9 98 0.2 SSW 33 39 18 21 1003.3 1003.3 0.6
01/10:26am 11.2 4.9 10.9 98 0.2 SSW 35 39 19 21 1003.1 1003.1 0.6
01/10:00am 11.3 9.2 11.0 98 0.2 SW 13 15 7 8 1003.3 1003.3 0.6
01/09:30am 11.3 7.8 11.0 98 0.2 SSW 20 22 11 12 1002.6 1002.6 0.4
01/09:00am 11.1 7.1 10.6 97 0.3 SW 22 24 12 13 1002.6 1002.6 12.2
01/08:30am 10.5 6.7 9.7 95 0.4 W 20 33 11 18 1002.8 1002.8 10.4
01/08:00am 12.2 6.5 11.3 94 0.5 N 32 52 17 28 1002.0 1002.0 6.4
01/07:59am 12.2 6.9 11.3 94 0.5 N 30 46 16 25 1002.1 1002.1 6.2
01/07:30am 12.3 8.1 11.2 93 0.6 N 24 26 13 14 1002.1 1002.1 4.4
01/07:00am 12.6 6.7 11.3 92 0.7 N 33 41 18 22 1002.0 1002.0 3.8
01/06:30am 12.6 6.4 11.3 92 0.7 N 35 44 19 24 1002.2 1002.2 3.6
01/06:00am 12.6 5.6 11.3 92 0.7 N 39 48 21 26 1002.5 1002.5 3.2
01/05:30am 12.4 6.6 11.5 94 0.5 N 33 41 18 22 1003.1 1003.1 2.8
01/05:00am 12.5 6.7 11.4 93 0.6 N 33 41 18 22 1003.6 1003.6 2.6
01/04:30am 12.6 6.9 11.3 92 0.7 N 32 39 17 21 1003.8 1003.8 1.6
01/04:00am 12.7 5.3 11.3 91 0.7 N 41 50 22 27 1004.2 1004.3 1.4
01/03:30am 13.1 5.8 11.5 90 0.8 N 41 50 22 27 1004.3 1004.4 0.8
01/03:00am 13.3 7.0 11.2 87 1.1 NNW 35 50 19 27 1004.8 1004.9 0.6
01/02:30am 13.8 5.8 11.0 83 1.5 N 44 56 24 30 1004.9 1005.0 0.2
01/02:00am 14.0 5.9 10.8 81 1.7 N 44 54 24 29 1004.7 1004.8 0.2
01/01:30am 15.2 7.4 9.8 70 2.8 N 41 54 22 29 1004.8 1004.9 0.0
01/01:24am 15.0 8.8 10.0 72 2.6 NNW 33 54 18 29 1004.9 1005.0 0.0
01/01:00am 14.5 6.3 9.7 73 2.5 N 43 52 23 28 1004.5 1004.6 0.0
01/12:30am 14.6 5.8 9.6 72 2.6 N 46 59 25 32 1004.5 1004.6 0.0
01/12:00am 14.4 5.7 9.8 74 2.4 N 46 56 25 30 1005.0 1005.1 0.0
 
Date/Time
EST
Temp
°C
App
Temp
°C
Dew
Point
Rel
Hum
%
Delta-T
°C
Wind Press
QNH
hPa
Press
MSL
hPa
Rain
since 9 am
mm
Dir
 
Spd
km/h
Gust
km/h
Spd
kts
Gust
kts
31/11:30pm 14.6 5.4 9.6 72 2.6 N 48 59 26 32 1004.7 1004.8 0.0
31/11:00pm 14.6 5.4 9.4 71 2.7 N 48 57 26 31 1005.3 1005.4 0.0
31/10:30pm 15.0 4.9 8.9 67 3.1 NNE 52 63 28 34 1005.6 1005.7 0.0
31/10:00pm 15.1 5.0 8.8 66 3.2 N 52 61 28 33 1006.2 1006.3 0.0
31/09:30pm 14.6 6.3 9.2 70 2.8 NNE 43 50 23 27 1006.7 1006.8 0.0
31/09:00pm 14.6 6.3 9.4 71 2.7 NNE 43 52 23 28 1007.0 1007.1 0.0
31/08:30pm 14.6 6.7 9.4 71 2.7 NNE 41 48 22 26 1007.3 1007.4 0.0
31/08:00pm 14.6 6.7 9.2 70 2.8 NNE 41 50 22 27 1007.6 1007.7 0.0
31/07:30pm 14.8 7.3 9.6 71 2.7 NNE 39 50 21 27 1007.8 1007.9 0.0
31/07:00pm 14.9 7.9 9.9 72 2.6 N 37 43 20 23 1007.8 1007.9 0.0
31/06:30pm 15.0 8.4 10.0 72 2.6 N 35 41 19 22 1007.9 1008.0 0.0
31/06:00pm 15.1 9.0 9.9 71 2.7 NNE 32 37 17 20 1007.9 1008.0 0.0
31/05:30pm 15.5 9.2 9.8 69 3.0 NNE 33 41 18 22 1008.0 1008.1 0.0
31/05:00pm 15.5 8.9 10.1 70 2.8 N 35 39 19 21 1008.3 1008.4 0.0
31/04:30pm 15.9 9.2 9.8 67 3.2 N 35 43 19 23 1008.4 1008.5 0.0
31/04:00pm 16.0 9.0 10.1 68 3.1 N 37 46 20 25 1008.5 1008.6 0.0
31/03:30pm 15.9 9.7 10.0 68 3.1 N 33 41 18 22 1008.9 1009.0 0.0
31/03:00pm 16.1 9.2 10.2 68 3.1 NNE 37 44 20 24 1009.3 1009.4 0.0
31/02:30pm 15.9 9.0 10.2 69 3.0 NNE 37 43 20 23 1009.6 1009.7 0.0
31/02:00pm 15.9 9.4 10.2 69 3.0 NNE 35 41 19 22 1010.0 1010.1 0.0
31/01:30pm 15.9 9.8 10.4 70 2.9 NNE 33 37 18 20 1010.6 1010.7 0.0
31/01:00pm 16.0 10.1 10.5 70 2.9 NNE 32 37 17 20 1011.1 1011.2 0.0
31/12:30pm 16.0 9.5 10.3 69 3.0 N 35 41 19 22 1011.7 1011.8 0.0
31/12:00pm 15.8 8.8 10.1 69 3.0 N 37 43 20 23 1012.2 1012.3 0.0

Other Formats:

Comma delimited format used in spreadsheet applications
http://www.bom.gov.au/fwo/IDT60801/IDT60801.94974.axf

JavaScript Object Notation format (JSON) in row-major order
http://www.bom.gov.au/fwo/IDT60801/IDT60801.94974.json